Time;durP1;ratioP1;P1;durP2;ratioP2;P2;SDS_P1;SDS_P2;PMS_P1;PMS_P2;Temp;Humidity;BMP_temperature;BMP_pressure;BME280_temperature;BME280_humidity;BME280_pressure;Samples;Min_cycle;Max_cycle;Signal;HPM_P1;HPM_P2
2022/03/12 00:01:15;;;;;;;7.23;4.20;;;11.60;99.90;;;;;;4073305;29;20219;-89
2022/03/12 00:03:16;;;;;;;7.50;4.57;;;11.50;99.90;;;;;;4073450;29;20316;-91
2022/03/12 00:05:18;;;;;;;7.97;5.10;;;11.40;99.90;;;;;;4089136;29;20215;-89
2022/03/12 00:07:18;;;;;;;7.03;5.40;;;11.40;99.90;;;;;;4073294;29;20176;-92
2022/03/12 00:09:19;;;;;;;9.60;5.27;;;11.50;99.90;;;;;;4073283;29;20190;-93
2022/03/12 00:11:34;;;;;;;8.57;4.93;;;11.60;99.90;;;;;;4073362;29;20183;-89
2022/03/12 00:13:35;;;;;;;8.70;5.30;;;11.60;99.90;;;;;;4073309;29;20176;-90
2022/03/12 00:15:37;;;;;;;7.57;5.17;;;11.40;99.90;;;;;;4073401;29;20203;-90
2022/03/12 00:17:43;;;;;;;7.47;5.60;;;11.50;99.90;;;;;;4073390;29;20172;-91
2022/03/12 00:19:44;;;;;;;6.50;4.93;;;11.50;99.90;;;;;;4073383;29;20235;-89
2022/03/12 00:21:47;;;;;;;7.20;5.10;;;11.60;99.90;;;;;;4073477;29;20688;-91
2022/03/12 00:23:50;;;;;;;7.80;5.30;;;11.70;99.90;;;;;;4073726;29;20172;-90
2022/03/12 00:25:50;;;;;;;7.10;5.43;;;11.60;99.90;;;;;;4073244;29;20243;-91
2022/03/12 00:27:51;;;;;;;7.50;5.17;;;11.50;99.90;;;;;;4089461;29;20172;-92
2022/03/12 00:29:54;;;;;;;7.90;5.00;;;11.40;99.90;;;;;;4088983;29;20560;-89
2022/03/12 00:31:54;;;;;;;7.17;5.10;;;11.40;99.90;;;;;;4073270;29;20171;-92
2022/03/12 00:33:56;;;;;;;6.70;4.60;;;11.40;99.90;;;;;;4073354;29;20206;-90
2022/03/12 00:35:58;;;;;;;6.87;4.80;;;11.40;99.90;;;;;;4073187;29;20191;-92
2022/03/12 00:37:59;;;;;;;7.13;4.63;;;11.40;99.90;;;;;;4088715;29;20182;-88
2022/03/12 00:40:00;;;;;;;6.43;4.60;;;11.40;99.90;;;;;;4073090;29;20689;-89
2022/03/12 00:42:00;;;;;;;6.07;4.30;;;11.40;99.90;;;;;;4089281;29;20175;-90
2022/03/12 00:44:02;;;;;;;5.63;4.40;;;11.20;99.90;;;;;;4071101;29;20172;-89
2022/03/12 00:46:05;;;;;;;9.33;5.03;;;11.10;99.90;;;;;;4070658;29;20219;-89
2022/03/12 00:48:06;;;;;;;6.30;4.33;;;11.20;99.90;;;;;;4086653;29;20641;-89
2022/03/12 00:50:08;;;;;;;6.23;4.47;;;11.30;99.90;;;;;;4070790;29;20180;-93
2022/03/12 00:52:08;;;;;;;7.13;4.90;;;11.20;99.90;;;;;;4070676;29;20232;-89
2022/03/12 00:54:10;;;;;;;7.97;4.57;;;11.30;99.90;;;;;;4086210;29;20183;-88
2022/03/12 00:56:11;;;;;;;6.53;4.80;;;11.20;99.90;;;;;;4070580;29;20553;-89
2022/03/12 00:58:12;;;;;;;6.73;3.97;;;11.20;99.90;;;;;;4086312;29;20183;-89
2022/03/12 01:00:16;;;;;;;8.57;4.77;;;11.40;99.90;;;;;;4086015;29;20207;-89
2022/03/12 01:02:17;;;;;;;6.20;4.43;;;11.50;99.90;;;;;;4086302;29;20180;-91
2022/03/12 01:04:18;;;;;;;5.70;4.37;;;11.40;99.90;;;;;;4070470;29;20260;-89
2022/03/12 01:06:19;;;;;;;7.23;4.50;;;11.40;99.90;;;;;;4070258;29;20188;-89
2022/03/12 01:08:20;;;;;;;5.30;4.00;;;11.40;99.90;;;;;;4070487;29;20183;-89
2022/03/12 01:10:21;;;;;;;5.00;3.57;;;11.30;99.90;;;;;;4086097;29;20191;-90
2022/03/12 01:12:22;;;;;;;6.03;4.40;;;11.30;99.90;;;;;;4086267;29;20262;-91
2022/03/12 01:14:23;;;;;;;6.50;4.00;;;11.40;99.90;;;;;;4070343;29;20549;-89
2022/03/12 01:16:24;;;;;;;5.37;3.80;;;11.40;99.90;;;;;;4070381;29;20176;-93
2022/03/12 01:18:25;;;;;;;5.77;3.73;;;11.30;99.90;;;;;;4085995;29;20194;-89
2022/03/12 01:20:26;;;;;;;5.20;3.50;;;11.30;99.90;;;;;;4070259;29;20216;-89
2022/03/12 01:22:29;;;;;;;9.07;3.90;;;11.30;99.90;;;;;;4070294;29;20216;-92
2022/03/12 01:24:30;;;;;;;4.93;3.40;;;11.30;99.90;;;;;;4070191;29;20167;-90
2022/03/12 01:26:35;;;;;;;6.00;3.80;;;11.30;99.90;;;;;;4086073;29;20541;-90
2022/03/12 01:28:37;;;;;;;5.90;3.63;;;11.40;99.90;;;;;;4070057;29;20207;-89
2022/03/12 01:30:38;;;;;;;4.47;3.30;;;11.50;99.90;;;;;;4070117;29;20238;-89
2022/03/12 01:32:38;;;;;;;4.80;3.30;;;11.40;99.90;;;;;;4070130;29;20207;-92
2022/03/12 01:34:39;;;;;;;5.10;3.70;;;11.50;99.90;;;;;;4101319;28;20289;-89
2022/03/12 01:36:40;;;;;;;5.10;3.43;;;11.60;99.90;;;;;;4085618;29;20621;-92
2022/03/12 01:38:52;;;;;;;4.87;3.53;;;11.60;99.90;;;;;;4070153;29;20732;-91
2022/03/12 01:40:53;;;;;;;4.60;3.00;;;11.60;99.90;;;;;;4069732;29;20218;-90
2022/03/12 01:42:54;;;;;;;3.77;2.90;;;11.50;99.90;;;;;;4085504;29;20279;-89
2022/03/12 01:44:55;;;;;;;4.60;3.27;;;11.40;99.90;;;;;;4069722;29;20220;-90
2022/03/12 01:46:56;;;;;;;4.90;2.70;;;11.40;99.90;;;;;;4085277;29;20266;-91
2022/03/12 01:48:59;;;;;;;4.97;3.00;;;11.30;99.90;;;;;;4085522;29;20172;-90
2022/03/12 01:51:01;;;;;;;4.07;2.90;;;11.40;99.90;;;;;;4085444;29;20183;-90
2022/03/12 01:53:08;;;;;;;4.53;2.80;;;11.30;99.90;;;;;;4085598;29;20183;-91
2022/03/12 01:55:10;;;;;;;8.40;2.80;;;11.30;99.90;;;;;;4084783;29;20771;-90
2022/03/12 01:57:11;;;;;;;4.50;2.80;;;11.20;99.90;;;;;;4085256;29;20267;-91
2022/03/12 01:59:12;;;;;;;3.33;2.53;;;11.20;99.90;;;;;;4069575;29;20176;-89
2022/03/12 02:01:14;;;;;;;3.80;2.70;;;11.20;99.90;;;;;;4085248;29;20219;-89
2022/03/12 02:03:20;;;;;;;6.13;2.47;;;11.20;99.90;;;;;;4085439;29;20178;-89
2022/03/12 02:05:27;;;;;;;5.90;2.87;;;11.20;99.90;;;;;;4085335;29;20250;-89
2022/03/12 02:07:29;;;;;;;4.77;3.03;;;11.10;99.90;;;;;;4085121;29;20179;-89
2022/03/12 02:09:30;;;;;;;4.60;2.97;;;11.20;99.90;;;;;;4069283;29;20180;-91
2022/03/12 02:11:31;;;;;;;3.93;2.77;;;11.20;99.90;;;;;;4071875;29;20275;-92
2022/03/12 02:13:32;;;;;;;4.63;2.63;;;11.30;99.90;;;;;;4109271;29;20182;-92
2022/03/12 02:15:34;;;;;;;3.97;2.60;;;11.30;99.90;;;;;;4105364;29;20202;-90
2022/03/12 02:17:37;;;;;;;4.03;2.47;;;11.40;99.90;;;;;;4099036;29;20277;-89
2022/03/12 02:19:40;;;;;;;4.73;2.80;;;11.30;99.90;;;;;;4085256;29;20187;-89
2022/03/12 02:22:08;;;;;;;6.03;2.47;;;11.40;99.90;;;;;;4085210;29;20190;-91
2022/03/12 02:24:11;;;;;;;3.47;2.43;;;11.30;99.90;;;;;;4085143;29;20179;-89
2022/03/12 02:26:11;;;;;;;4.50;3.03;;;11.30;99.90;;;;;;4084861;29;20199;-89
2022/03/12 02:28:17;;;;;;;4.03;2.03;;;11.30;99.90;;;;;;4084743;29;20190;-92
2022/03/12 02:30:19;;;;;;;3.53;2.80;;;11.30;99.90;;;;;;4069303;29;20283;-89
2022/03/12 02:32:20;;;;;;;4.17;2.40;;;11.30;99.90;;;;;;4084763;29;20179;-90
2022/03/12 02:34:23;;;;;;;3.87;2.83;;;11.20;99.90;;;;;;4069133;29;20183;-89
2022/03/12 02:36:27;;;;;;;4.30;3.00;;;11.20;99.90;;;;;;4069193;29;20195;-90
2022/03/12 02:38:28;;;;;;;5.73;3.00;;;11.20;99.90;;;;;;4069219;29;20180;-89
2022/03/12 02:40:35;;;;;;;7.37;2.80;;;11.20;99.90;;;;;;4069190;29;20215;-92
2022/03/12 02:42:40;;;;;;;4.23;3.13;;;11.20;99.90;;;;;;4084869;29;20656;-92
2022/03/12 02:44:43;;;;;;;4.63;2.87;;;11.20;99.90;;;;;;4069006;29;20195;-89
2022/03/12 02:47:11;;;;;;;4.43;2.73;;;11.10;99.90;;;;;;4084692;29;20229;-90
2022/03/12 02:49:15;;;;;;;4.73;2.70;;;11.10;99.90;;;;;;4084501;29;20183;-90
2022/03/12 02:51:16;;;;;;;4.83;2.53;;;11.00;99.90;;;;;;4084675;29;20203;-91
2022/03/12 02:53:17;;;;;;;3.77;2.93;;;11.00;99.90;;;;;;4084687;29;20179;-90
2022/03/12 02:55:23;;;;;;;5.50;3.17;;;10.90;99.90;;;;;;4084434;29;20266;-91
2022/03/12 02:57:28;;;;;;;5.93;3.10;;;10.90;99.90;;;;;;4084553;29;20644;-89
2022/03/12 02:59:29;;;;;;;5.33;3.07;;;11.00;99.90;;;;;;4084562;29;20179;-92
2022/03/12 03:01:32;;;;;;;5.53;2.90;;;10.90;99.90;;;;;;4069063;29;20271;-91
2022/03/12 03:03:37;;;;;;;3.63;2.67;;;10.90;99.90;;;;;;4068840;29;20176;-92
2022/03/12 03:05:47;;;;;;;5.77;3.00;;;10.90;99.90;;;;;;4100035;28;20716;-89
2022/03/12 03:07:55;;;;;;;5.03;3.20;;;10.80;99.90;;;;;;4084017;29;20182;-89
2022/03/12 03:09:56;;;;;;;4.53;3.30;;;10.80;99.90;;;;;;4068645;29;20521;-89
2022/03/12 03:11:57;;;;;;;4.80;2.80;;;10.90;99.90;;;;;;4068662;29;20179;-89
2022/03/12 03:13:58;;;;;;;6.30;3.33;;;10.90;99.90;;;;;;4068531;29;20184;-90
2022/03/12 03:16:07;;;;;;;5.30;3.37;;;10.90;99.90;;;;;;4068669;29;20233;-93
2022/03/12 03:18:08;;;;;;;4.77;3.07;;;10.90;99.90;;;;;;4068841;29;20267;-89
2022/03/12 03:20:10;;;;;;;5.90;2.80;;;10.80;99.90;;;;;;4084145;29;20207;-91
2022/03/12 03:22:12;;;;;;;5.97;3.20;;;10.70;99.90;;;;;;4084495;29;20640;-90
2022/03/12 03:24:12;;;;;;;4.03;3.00;;;10.90;99.90;;;;;;4084682;29;20251;-89
2022/03/12 03:26:19;;;;;;;5.50;3.30;;;11.00;99.90;;;;;;4084410;29;20203;-89
2022/03/12 03:28:20;;;;;;;6.40;3.20;;;11.10;99.90;;;;;;4084557;29;20258;-90
2022/03/12 03:30:21;;;;;;;5.33;2.93;;;11.20;99.90;;;;;;4084432;29;20674;-89
2022/03/12 03:32:22;;;;;;;5.20;2.93;;;11.00;99.90;;;;;;4084287;29;20172;-92
2022/03/12 03:34:24;;;;;;;5.80;3.40;;;11.10;99.90;;;;;;4068391;29;20736;-91
2022/03/12 03:36:24;;;;;;;5.13;3.27;;;11.00;99.90;;;;;;4084270;29;20199;-89
2022/03/12 03:38:25;;;;;;;6.20;3.40;;;11.00;99.90;;;;;;4068522;29;20231;-89
2022/03/12 03:40:26;;;;;;;7.27;3.10;;;11.00;99.90;;;;;;4068310;29;20208;-89
2022/03/12 03:42:28;;;;;;;5.47;3.43;;;11.00;99.90;;;;;;4068628;29;20199;-92
2022/03/12 03:44:29;;;;;;;6.67;3.13;;;11.00;99.90;;;;;;4068305;29;20179;-91
2022/03/12 03:46:30;;;;;;;5.80;3.20;;;11.10;99.90;;;;;;4068335;29;20259;-90
2022/03/12 03:48:40;;;;;;;6.37;3.10;;;11.00;99.90;;;;;;4068650;29;20259;-89
2022/03/12 03:50:42;;;;;;;4.10;2.63;;;10.90;99.90;;;;;;4084223;29;20187;-89
2022/03/12 03:52:43;;;;;;;6.40;3.20;;;10.90;99.90;;;;;;4068500;29;20275;-92
2022/03/12 03:54:44;;;;;;;7.83;3.20;;;10.80;99.90;;;;;;4083658;29;20219;-90
2022/03/12 03:56:44;;;;;;;5.83;3.40;;;10.80;99.90;;;;;;4067991;29;20176;-89
2022/03/12 03:58:45;;;;;;;5.83;3.33;;;10.80;99.90;;;;;;4084017;29;20188;-92
2022/03/12 04:00:58;;;;;;;8.10;3.47;;;11.00;99.90;;;;;;4068223;29;20259;-89
2022/03/12 04:03:02;;;;;;;8.43;3.60;;;11.00;99.90;;;;;;4084029;29;20183;-89
2022/03/12 04:05:04;;;;;;;8.10;3.10;;;11.10;99.90;;;;;;4068171;29;20688;-90
2022/03/12 04:07:05;;;;;;;5.63;3.50;;;11.30;99.90;;;;;;4068151;29;20184;-88
2022/03/12 04:09:06;;;;;;;9.57;3.53;;;11.20;99.90;;;;;;4083821;29;20556;-89
2022/03/12 04:11:13;;;;;;;5.10;3.30;;;11.30;99.90;;;;;;4068133;29;20256;-92
2022/03/12 04:13:23;;;;;;;7.60;3.50;;;11.10;99.90;;;;;;4083846;29;20183;-91
2022/03/12 04:15:24;;;;;;;6.17;3.03;;;11.00;99.90;;;;;;4083645;29;20786;-90
2022/03/12 04:17:25;;;;;;;6.53;3.20;;;11.00;99.90;;;;;;4067912;29;20179;-92
2022/03/12 04:19:30;;;;;;;7.40;3.10;;;10.90;99.90;;;;;;4085225;29;20633;-92
2022/03/12 04:21:33;;;;;;;6.43;3.07;;;10.80;99.90;;;;;;4071381;29;20672;-92
2022/03/12 04:23:35;;;;;;;7.57;3.20;;;10.90;99.90;;;;;;4086839;29;20235;-90
2022/03/12 04:25:35;;;;;;;6.33;3.33;;;11.00;99.90;;;;;;4086736;29;20246;-91
2022/03/12 04:27:38;;;;;;;7.57;3.50;;;11.00;99.90;;;;;;4086726;29;20175;-91
2022/03/12 04:29:38;;;;;;;8.57;3.73;;;11.00;99.90;;;;;;4071095;29;20180;-90
2022/03/12 04:31:39;;;;;;;7.20;3.50;;;10.70;99.90;;;;;;4071043;29;20236;-92
2022/03/12 04:33:40;;;;;;;8.23;3.50;;;10.70;99.90;;;;;;4071174;29;20212;-89
2022/03/12 04:35:42;;;;;;;6.23;3.07;;;10.70;99.90;;;;;;4086978;29;20227;-90
2022/03/12 04:37:43;;;;;;;5.97;3.03;;;10.70;99.90;;;;;;4071168;29;20184;-90
2022/03/12 04:39:44;;;;;;;8.33;3.20;;;10.50;99.90;;;;;;4086550;29;20186;-92
2022/03/12 04:41:44;;;;;;;8.43;3.70;;;10.50;99.90;;;;;;4070865;29;20176;-92
2022/03/12 04:43:45;;;;;;;8.47;3.90;;;10.50;99.90;;;;;;4070780;29;20184;-92
2022/03/12 04:45:47;;;;;;;10.37;3.53;;;10.50;99.90;;;;;;4087321;29;20219;-91
2022/03/12 04:47:48;;;;;;;11.00;4.27;;;10.60;99.90;;;;;;4078894;29;20204;-93
2022/03/12 04:49:49;;;;;;;6.73;4.07;;;10.50;99.90;;;;;;4084726;29;20268;-90
2022/03/12 04:51:50;;;;;;;10.50;3.50;;;10.30;99.90;;;;;;4107089;29;20163;-90
2022/03/12 04:53:56;;;;;;;7.23;3.33;;;10.30;99.90;;;;;;4073837;29;20184;-93
2022/03/12 04:55:57;;;;;;;8.70;3.80;;;10.20;99.90;;;;;;4070474;29;20550;-88
2022/03/12 04:57:58;;;;;;;6.97;3.30;;;10.20;99.90;;;;;;4070483;29;20176;-89
2022/03/12 05:00:02;;;;;;;8.17;3.60;;;10.20;99.90;;;;;;4070394;29;20283;-90
2022/03/12 05:02:09;;;;;;;7.33;3.37;;;10.10;99.90;;;;;;4070524;29;20644;-92
2022/03/12 05:04:09;;;;;;;6.80;3.30;;;10.20;99.90;;;;;;4086266;29;20568;-89
2022/03/12 05:06:13;;;;;;;6.00;3.23;;;10.10;99.90;;;;;;4085997;29;20200;-90
2022/03/12 05:08:15;;;;;;;7.97;3.50;;;10.00;99.90;;;;;;4086271;29;20176;-89
2022/03/12 05:10:17;;;;;;;7.27;3.50;;;10.10;99.90;;;;;;4070328;29;20268;-90
2022/03/12 05:12:18;;;;;;;6.27;3.30;;;10.10;99.90;;;;;;4070660;29;20664;-89
2022/03/12 05:14:19;;;;;;;9.07;3.23;;;10.00;99.90;;;;;;4070332;29;20172;-89
2022/03/12 05:16:21;;;;;;;5.87;3.23;;;10.10;99.90;;;;;;4070269;29;20185;-89
2022/03/12 05:18:23;;;;;;;6.97;3.23;;;10.00;99.90;;;;;;4070479;29;20542;-89
2022/03/12 05:20:26;;;;;;;5.93;2.80;;;10.00;99.90;;;;;;4086079;29;20798;-92
2022/03/12 05:22:27;;;;;;;4.77;3.10;;;9.90;99.90;;;;;;4085865;29;20620;-92
2022/03/12 05:24:28;;;;;;;5.83;3.33;;;9.90;99.90;;;;;;4085741;29;20266;-89
2022/03/12 05:26:28;;;;;;;11.43;3.47;;;9.90;99.90;;;;;;4070218;29;20176;-92
2022/03/12 05:28:32;;;;;;;5.77;2.90;;;9.90;99.90;;;;;;4085981;29;20275;-89
2022/03/12 05:30:33;;;;;;;9.03;3.37;;;9.90;99.90;;;;;;4069755;29;20251;-91
2022/03/12 05:32:33;;;;;;;6.57;3.40;;;9.90;99.90;;;;;;4070317;29;20184;-90
2022/03/12 05:34:35;;;;;;;8.27;3.50;;;9.90;99.90;;;;;;4085746;29;20683;-91
2022/03/12 05:36:40;;;;;;;7.47;3.23;;;9.90;99.90;;;;;;4070643;29;20247;-89
2022/03/12 05:38:40;;;;;;;7.17;3.17;;;9.90;99.90;;;;;;4085888;29;20183;-91
2022/03/12 05:40:43;;;;;;;8.00;3.17;;;9.90;99.90;;;;;;4085924;29;20270;-92
2022/03/12 05:42:44;;;;;;;7.60;3.43;;;9.80;99.90;;;;;;4070136;29;20176;-89
2022/03/12 05:44:45;;;;;;;5.70;3.20;;;9.70;99.90;;;;;;4085801;29;20247;-90
2022/03/12 05:46:46;;;;;;;7.80;4.03;;;9.60;99.90;;;;;;4069894;29;20192;-92
2022/03/12 05:48:47;;;;;;;6.87;3.40;;;9.70;99.90;;;;;;4069820;29;20184;-91
2022/03/12 05:50:49;;;;;;;6.40;3.03;;;9.70;99.90;;;;;;4085509;29;20172;-89
2022/03/12 05:52:50;;;;;;;8.77;3.30;;;9.80;99.90;;;;;;4069786;29;20188;-89
2022/03/12 05:54:50;;;;;;;10.07;3.23;;;9.90;99.90;;;;;;4069666;29;20200;-91
2022/03/12 05:56:51;;;;;;;8.23;3.53;;;9.80;99.90;;;;;;4069474;29;20527;-92
2022/03/12 05:58:52;;;;;;;8.23;2.97;;;9.90;99.90;;;;;;4101304;28;20174;-89
2022/03/12 06:00:54;;;;;;;8.33;3.43;;;9.90;99.90;;;;;;4085086;29;20238;-89
2022/03/12 06:02:55;;;;;;;7.43;3.03;;;10.00;99.90;;;;;;4069755;29;20176;-92
2022/03/12 06:04:59;;;;;;;5.33;2.83;;;9.90;99.90;;;;;;4069552;29;20195;-92
2022/03/12 06:07:02;;;;;;;10.43;3.23;;;9.90;99.90;;;;;;4069680;29;20171;-92
2022/03/12 06:09:07;;;;;;;7.40;3.50;;;9.80;99.90;;;;;;4085444;29;20564;-89
2022/03/12 06:11:08;;;;;;;7.40;2.70;;;9.70;99.90;;;;;;4085377;29;20171;-89
2022/03/12 06:13:08;;;;;;;6.60;3.20;;;9.70;99.90;;;;;;4085208;29;20191;-92
2022/03/12 06:15:11;;;;;;;8.63;2.90;;;9.70;99.90;;;;;;4085022;29;20191;-91
2022/03/12 06:17:13;;;;;;;8.30;2.93;;;9.80;99.90;;;;;;4084882;29;20543;-91
2022/03/12 06:19:21;;;;;;;9.00;3.07;;;9.70;99.90;;;;;;4069341;29;20183;-90
2022/03/12 06:21:22;;;;;;;7.13;2.77;;;9.60;99.90;;;;;;4085142;29;20223;-92
2022/03/12 06:23:23;;;;;;;8.10;2.80;;;9.60;99.90;;;;;;4084971;29;20191;-91
2022/03/12 06:25:24;;;;;;;13.03;3.27;;;9.70;99.90;;;;;;4069117;29;20196;-89
2022/03/12 06:27:25;;;;;;;5.90;2.97;;;9.70;99.90;;;;;;4069801;29;20537;-90
2022/03/12 06:29:25;;;;;;;6.80;2.70;;;9.70;99.90;;;;;;4069156;29;20192;-90
2022/03/12 06:31:26;;;;;;;7.33;2.73;;;9.80;99.90;;;;;;4069169;29;20180;-92
2022/03/12 06:33:27;;;;;;;8.03;2.73;;;9.80;99.90;;;;;;4084999;29;20209;-89
2022/03/12 06:35:27;;;;;;;10.07;2.90;;;9.70;99.90;;;;;;4069140;29;20196;-92
2022/03/12 06:37:28;;;;;;;8.40;2.87;;;9.80;99.90;;;;;;4084897;29;20167;-89
2022/03/12 06:39:29;;;;;;;5.93;2.50;;;10.00;99.90;;;;;;4069260;29;20172;-91
2022/03/12 06:41:32;;;;;;;11.40;2.97;;;9.90;99.90;;;;;;4068192;29;20224;-92
2022/03/12 06:43:33;;;;;;;10.83;2.80;;;10.00;99.90;;;;;;4069218;29;20180;-89
2022/03/12 06:45:34;;;;;;;5.87;2.40;;;10.10;99.90;;;;;;4084957;29;20203;-90
2022/03/12 06:47:38;;;;;;;9.63;2.60;;;10.10;99.90;;;;;;4084874;29;20172;-90
2022/03/12 06:49:39;;;;;;;8.30;2.53;;;10.30;99.90;;;;;;4084761;29;20180;-89
2022/03/12 06:51:42;;;;;;;8.70;2.47;;;10.30;99.90;;;;;;4084754;29;20168;-90
2022/03/12 06:53:43;;;;;;;6.70;2.50;;;10.20;99.90;;;;;;4084868;29;20266;-91
2022/03/12 06:55:44;;;;;;;6.93;2.77;;;10.20;99.90;;;;;;4068971;29;20203;-91
2022/03/12 06:57:47;;;;;;;8.70;2.20;;;10.20;99.90;;;;;;4068877;29;20192;-89
2022/03/12 06:59:50;;;;;;;8.30;2.50;;;10.30;99.90;;;;;;4069029;29;20191;-89
2022/03/12 07:01:51;;;;;;;7.50;2.90;;;10.30;99.90;;;;;;4084694;29;20183;-92
2022/03/12 07:03:51;;;;;;;6.70;2.60;;;10.50;99.90;;;;;;4084483;29;20279;-92
2022/03/12 07:05:54;;;;;;;9.13;2.83;;;10.80;99.90;;;;;;4084513;29;20541;-89
2022/03/12 07:07:56;;;;;;;12.83;2.70;;;10.80;99.90;;;;;;4068889;29;20255;-90
2022/03/12 07:09:56;;;;;;;10.57;2.57;;;11.10;99.90;;;;;;4084534;29;20187;-91
2022/03/12 07:11:58;;;;;;;5.80;2.47;;;11.40;99.90;;;;;;4068751;29;20176;-90
2022/03/12 07:14:00;;;;;;;9.57;2.40;;;11.40;99.90;;;;;;4068818;29;20172;-89
2022/03/12 07:16:02;;;;;;;6.73;2.70;;;11.40;99.90;;;;;;4068581;29;20191;-89
2022/03/12 07:18:03;;;;;;;7.73;2.50;;;11.70;99.90;;;;;;4068511;29;20180;-91
2022/03/12 07:20:05;;;;;;;9.20;2.97;;;11.80;99.90;;;;;;4084189;29;20211;-91
2022/03/12 07:22:06;;;;;;;6.10;2.80;;;11.70;99.90;;;;;;4069664;29;20203;-89
2022/03/12 07:24:07;;;;;;;6.70;2.60;;;11.70;99.90;;;;;;4072719;29;20175;-90
2022/03/12 07:26:08;;;;;;;11.80;2.93;;;12.00;99.90;;;;;;4104543;29;20264;-91
2022/03/12 07:28:10;;;;;;;10.03;3.60;;;12.10;99.90;;;;;;4094253;29;20643;-92
2022/03/12 07:30:14;;;;;;;8.00;3.10;;;12.20;99.90;;;;;;4068277;29;20176;-89
2022/03/12 07:32:15;;;;;;;12.93;3.10;;;12.30;99.90;;;;;;4084231;29;20180;-93
2022/03/12 07:34:16;;;;;;;6.73;2.93;;;12.00;99.90;;;;;;4084397;29;20176;-93
2022/03/12 07:36:17;;;;;;;6.10;3.00;;;12.10;99.90;;;;;;4068423;29;20199;-89
2022/03/12 07:38:18;;;;;;;7.73;3.00;;;12.10;99.90;;;;;;4084198;29;20211;-89
2022/03/12 07:40:19;;;;;;;10.00;2.97;;;12.20;99.90;;;;;;4068343;29;20196;-89
2022/03/12 07:42:19;;;;;;;7.23;2.73;;;12.10;99.90;;;;;;4068591;29;20184;-89
2022/03/12 07:44:22;;;;;;;7.53;2.73;;;12.00;99.90;;;;;;4084185;29;20167;-92
2022/03/12 07:46:23;;;;;;;7.13;2.40;;;12.00;99.90;;;;;;4068334;29;20278;-90
2022/03/12 07:48:23;;;;;;;11.23;3.10;;;12.00;99.90;;;;;;4084165;29;20206;-92
2022/03/12 07:50:26;;;;;;;10.47;3.00;;;12.20;99.90;;;;;;4084671;29;20192;-91
2022/03/12 07:52:27;;;;;;;10.93;3.00;;;12.50;99.90;;;;;;4084499;29;20172;-91
2022/03/12 07:54:28;;;;;;;9.97;2.73;;;12.60;99.90;;;;;;4071679;29;20172;-89
2022/03/12 07:56:29;;;;;;;11.53;2.97;;;12.60;99.90;;;;;;4087667;29;20168;-93
2022/03/12 07:58:30;;;;;;;6.07;2.50;;;12.70;99.90;;;;;;4087698;29;20206;-93
2022/03/12 08:00:31;;;;;;;9.47;3.27;;;12.60;99.90;;;;;;4087654;29;20301;-92
2022/03/12 08:02:32;;;;;;;8.87;2.63;;;12.60;99.90;;;;;;4087415;29;20175;-88
2022/03/12 08:04:33;;;;;;;9.00;3.10;;;12.30;99.90;;;;;;4087006;29;20183;-93
2022/03/12 08:06:34;;;;;;;7.03;2.90;;;12.60;99.90;;;;;;4071596;29;20173;-89
2022/03/12 08:08:35;;;;;;;6.23;2.47;;;12.90;99.90;;;;;;4102950;28;20182;-90
2022/03/12 08:11:25;;;;;;;4.97;2.40;;;12.70;99.90;;;;;;4086904;29;20182;-92
2022/03/12 08:12:58;;;;;;;8.97;3.03;;;12.50;99.90;;;;;;4086683;29;20199;-89
2022/03/12 08:14:59;;;;;;;12.10;3.10;;;12.50;99.90;;;;;;4086685;29;20192;-91
2022/03/12 08:16:59;;;;;;;8.10;2.50;;;12.80;99.90;;;;;;4071276;29;20173;-92
2022/03/12 08:19:05;;;;;;;8.13;2.80;;;13.20;99.90;;;;;;4071171;29;20176;-90
2022/03/12 08:21:06;;;;;;;8.32;2.15;;;13.30;99.90;;;;;;4102535;28;20207;-89
2022/03/12 08:23:08;;;;;;;9.80;2.67;;;13.50;99.90;;;;;;4087041;29;20536;-89
2022/03/12 08:25:11;;;;;;;6.10;2.47;;;13.50;99.90;;;;;;4071064;29;20223;-93
2022/03/12 08:27:14;;;;;;;9.57;2.60;;;13.50;99.90;;;;;;4087001;29;20190;-88
2022/03/12 08:29:18;;;;;;;9.38;2.40;;;13.90;99.90;;;;;;4071186;29;20561;-89
2022/03/12 08:31:19;;;;;;;13.57;2.90;;;14.00;99.90;;;;;;4087002;29;20227;-92
2022/03/12 08:33:20;;;;;;;10.30;2.75;;;14.00;99.90;;;;;;4070852;29;20270;-92
2022/03/12 08:35:22;;;;;;;6.65;2.45;;;14.00;99.90;;;;;;4070874;29;20290;-89
2022/03/12 08:37:22;;;;;;;10.18;2.97;;;14.20;99.90;;;;;;4086969;29;20214;-89
2022/03/12 08:39:23;;;;;;;6.07;2.70;;;14.10;99.90;;;;;;4086850;29;20218;-90
2022/03/12 08:41:25;;;;;;;10.63;3.58;;;14.10;99.90;;;;;;4071074;29;20220;-93
2022/03/12 08:43:25;;;;;;;8.63;2.83;;;14.30;99.90;;;;;;4071005;29;20176;-93
2022/03/12 08:45:26;;;;;;;10.25;2.65;;;14.50;99.90;;;;;;4086523;29;20224;-91
2022/03/12 08:47:27;;;;;;;7.28;1.98;;;14.30;99.90;;;;;;4070725;29;20191;-94
2022/03/12 08:49:27;;;;;;;9.63;3.17;;;13.70;99.90;;;;;;4070912;29;20183;-90
2022/03/12 08:51:28;;;;;;;9.30;2.88;;;13.80;99.90;;;;;;4086334;29;20171;-92
2022/03/12 08:53:29;;;;;;;7.70;2.80;;;14.00;99.90;;;;;;4086666;29;20168;-90
2022/03/12 08:55:29;;;;;;;5.70;2.47;;;14.00;99.90;;;;;;4070715;29;20287;-94
2022/03/12 08:57:30;;;;;;;9.75;3.00;;;13.80;99.90;;;;;;4086799;29;20168;-93
2022/03/12 08:59:31;;;;;;;7.45;2.60;;;14.00;99.90;;;;;;4070891;29;20561;-90
2022/03/12 09:01:33;;;;;;;10.50;2.35;;;14.10;99.90;;;;;;4086598;29;20208;-92
2022/03/12 09:03:35;;;;;;;7.25;2.70;;;13.90;99.90;;;;;;4086659;29;20238;-88
2022/03/12 09:05:36;;;;;;;7.45;2.40;;;14.10;99.90;;;;;;4069911;29;20223;-89
2022/03/12 09:07:37;;;;;;;6.07;2.70;;;14.00;99.90;;;;;;4086362;29;20176;-92
2022/03/12 09:09:38;;;;;;;8.50;2.28;;;13.80;99.90;;;;;;4070427;29;20652;-94
2022/03/12 09:11:39;;;;;;;9.52;2.63;;;13.60;99.90;;;;;;4070768;29;20188;-90
2022/03/12 09:13:39;;;;;;;7.53;2.58;;;13.50;99.90;;;;;;4070581;29;20721;-90
2022/03/12 09:15:41;;;;;;;8.88;2.53;;;13.80;99.90;;;;;;4070205;29;20200;-92
2022/03/12 09:17:42;;;;;;;11.77;3.22;;;13.70;99.90;;;;;;4070713;29;20169;-92
2022/03/12 09:19:43;;;;;;;10.23;2.60;;;14.10;99.90;;;;;;4086181;29;20251;-89
2022/03/12 09:21:44;;;;;;;10.45;2.60;;;14.10;99.90;;;;;;4070690;29;20180;-89
2022/03/12 09:23:45;;;;;;;8.95;2.70;;;14.00;99.90;;;;;;4070423;29;20184;-89
2022/03/12 09:25:48;;;;;;;10.32;2.53;;;13.70;99.90;;;;;;4086032;29;20254;-89
2022/03/12 09:27:53;;;;;;;9.68;2.85;;;13.80;99.90;;;;;;4085979;29;20176;-90
2022/03/12 09:29:55;;;;;;;7.80;2.45;;;14.00;99.90;;;;;;4070414;29;20183;-91
2022/03/12 09:31:56;;;;;;;11.55;2.80;;;14.00;99.90;;;;;;4069943;29;20180;-90
2022/03/12 09:33:56;;;;;;;9.55;2.63;;;13.80;99.90;;;;;;4085806;29;20271;-93
2022/03/12 09:35:57;;;;;;;9.60;2.33;;;14.00;99.90;;;;;;4069866;29;20204;-91
2022/03/12 09:38:00;;;;;;;6.70;2.25;;;13.90;99.90;;;;;;4085886;29;20334;-92
2022/03/12 09:40:01;;;;;;;8.27;2.90;;;14.10;99.90;;;;;;4085334;29;20235;-89
2022/03/12 09:42:02;;;;;;;7.00;2.60;;;14.40;99.90;;;;;;4084837;29;20641;-95
2022/03/12 09:44:03;;;;;;;8.73;2.95;;;14.50;99.90;;;;;;4070222;29;20173;-95
2022/03/12 09:46:04;;;;;;;10.27;2.97;;;14.60;99.90;;;;;;4070249;29;20264;-92
2022/03/12 09:48:07;;;;;;;12.55;3.15;;;14.20;99.90;;;;;;4070160;29;20264;-94
2022/03/12 09:50:08;;;;;;;5.70;2.42;;;14.30;99.90;;;;;;4070301;29;20168;-93
2022/03/12 09:52:10;;;;;;;9.88;2.40;;;14.30;99.90;;;;;;4069768;29;20181;-94
2022/03/12 09:54:11;;;;;;;9.15;2.95;;;14.10;99.90;;;;;;4054545;29;20173;-95
2022/03/12 09:56:12;;;;;;;15.15;3.10;;;14.20;99.90;;;;;;4070941;29;20316;-94
2022/03/12 09:58:12;;;;;;;9.93;3.10;;;14.30;99.90;;;;;;4060722;29;20173;-94
2022/03/12 10:00:15;;;;;;;11.38;3.25;;;14.60;99.90;;;;;;4066289;29;20204;-93
2022/03/12 10:02:16;;;;;;;8.95;2.53;;;14.90;99.90;;;;;;4089118;29;20160;-93
2022/03/12 10:04:17;;;;;;;16.38;2.47;;;14.50;99.90;;;;;;4073360;29;20279;-90
2022/03/12 10:06:17;;;;;;;7.53;2.00;;;14.40;99.90;;;;;;4070086;29;20243;-95
2022/03/12 10:08:18;;;;;;;15.77;2.90;;;14.20;99.90;;;;;;4070145;29;20538;-92
2022/03/12 10:10:22;;;;;;;10.50;2.97;;;14.10;99.90;;;;;;4069786;29;20178;-93
2022/03/12 10:12:23;;;;;;;11.82;3.05;;;14.00;99.90;;;;;;4069723;29;20852;-90
2022/03/12 10:14:24;;;;;;;12.48;3.60;;;14.00;99.90;;;;;;4069858;29;20261;-90
2022/03/12 10:16:25;;;;;;;13.75;3.25;;;13.90;99.90;;;;;;4068860;29;20181;-92
2022/03/12 10:18:26;;;;;;;14.07;3.50;;;14.00;99.90;;;;;;4054174;29;20268;-94
2022/03/12 10:20:28;;;;;;;10.77;3.10;;;13.80;99.90;;;;;;4069700;29;20263;-90
2022/03/12 10:22:28;;;;;;;9.57;2.65;;;14.00;99.90;;;;;;4069584;29;20273;-93
2022/03/12 10:24:29;;;;;;;10.95;3.28;;;13.90;99.90;;;;;;4069428;29;20306;-92
2022/03/12 10:26:30;;;;;;;17.13;3.05;;;13.80;99.90;;;;;;4069664;29;20563;-89
2022/03/12 10:28:36;;;;;;;10.90;3.50;;;13.60;99.90;;;;;;4053824;29;20268;-92
2022/03/12 10:30:36;;;;;;;10.32;3.35;;;13.70;99.90;;;;;;4069723;29;20180;-93
2022/03/12 10:32:44;;;;;;;10.23;3.05;;;13.90;99.90;;;;;;4069593;29;20239;-90
2022/03/12 10:34:52;;;;;;;9.82;3.35;;;13.90;99.90;;;;;;4069806;29;20517;-89